sensor_id;sensor_type;location;lat;lon;timestamp;noise_LAeq;noise_LA_min;noise_LA_max;noise_LA01;noise_LA95
67298;Laerm;65443;51.436;5.978;2022-12-18T00:00:04;37.17;34.62;41.14;;
67298;Laerm;65443;51.436;5.978;2022-12-18T00:00:15;56.87;33.75;70.95;;
67298;Laerm;65443;51.436;5.978;2022-12-18T00:00:25;34.64;32.92;36.70;;
67298;Laerm;65443;51.436;5.978;2022-12-18T00:00:39;34.25;31.80;36.99;;
67298;Laerm;65443;51.436;5.978;2022-12-18T00:00:50;34.54;31.19;37.84;;
67298;Laerm;65443;51.436;5.978;2022-12-18T00:01:00;34.16;31.08;39.49;;
67298;Laerm;65443;51.436;5.978;2022-12-18T00:01:23;33.62;30.85;35.81;;
67298;Laerm;65443;51.436;5.978;2022-12-18T00:01:34;57.09;33.19;72.38;;
67298;Laerm;65443;51.436;5.978;2022-12-18T00:01:45;42.45;36.20;49.11;;
67298;Laerm;65443;51.436;5.978;2022-12-18T00:01:56;43.74;37.03;48.78;;
67298;Laerm;65443;51.436;5.978;2022-12-18T00:02:06;36.08;30.61;46.58;;
67298;Laerm;65443;51.436;5.978;2022-12-18T00:02:17;60.36;29.68;68.24;;
67298;Laerm;65443;51.436;5.978;2022-12-18T00:02:27;64.04;56.13;68.61;;
67298;Laerm;65443;51.436;5.978;2022-12-18T00:02:37;60.33;53.72;67.20;;
67298;Laerm;65443;51.436;5.978;2022-12-18T00:02:47;60.40;54.54;66.15;;
67298;Laerm;65443;51.436;5.978;2022-12-18T00:02:58;60.63;53.85;65.89;;
67298;Laerm;65443;51.436;5.978;2022-12-18T00:03:08;72.38;55.98;79.55;;
67298;Laerm;65443;51.436;5.978;2022-12-18T00:03:19;76.63;73.88;79.77;;
67298;Laerm;65443;51.436;5.978;2022-12-18T00:03:29;75.43;62.34;79.28;;
67298;Laerm;65443;51.436;5.978;2022-12-18T00:03:39;59.79;42.14;65.87;;
67298;Laerm;65443;51.436;5.978;2022-12-18T00:03:50;44.01;38.74;56.50;;
67298;Laerm;65443;51.436;5.978;2022-12-18T00:04:01;39.17;35.70;44.67;;
67298;Laerm;65443;51.436;5.978;2022-12-18T00:04:15;37.70;34.97;43.22;;
67298;Laerm;65443;51.436;5.978;2022-12-18T00:04:28;39.54;36.15;43.36;;
67298;Laerm;65443;51.436;5.978;2022-12-18T00:04:39;49.94;40.19;55.84;;
67298;Laerm;65443;51.436;5.978;2022-12-18T00:04:49;47.33;34.78;54.98;;
67298;Laerm;65443;51.436;5.978;2022-12-18T00:05:00;34.29;31.42;37.20;;
67298;Laerm;65443;51.436;5.978;2022-12-18T00:05:10;32.78;30.47;35.62;;
67298;Laerm;65443;51.436;5.978;2022-12-18T00:05:20;32.63;29.81;35.82;;
67298;Laerm;65443;51.436;5.978;2022-12-18T00:05:31;32.84;30.50;39.15;;
67298;Laerm;65443;51.436;5.978;2022-12-18T00:05:50;32.60;30.29;37.04;;
67298;Laerm;65443;51.436;5.978;2022-12-18T00:06:01;63.02;30.34;68.68;;
67298;Laerm;65443;51.436;5.978;2022-12-18T00:06:12;60.63;51.73;67.85;;
67298;Laerm;65443;51.436;5.978;2022-12-18T00:06:24;60.56;52.35;67.09;;
67298;Laerm;65443;51.436;5.978;2022-12-18T00:06:34;60.75;52.50;66.40;;
67298;Laerm;65443;51.436;5.978;2022-12-18T00:06:45;74.85;59.26;79.05;;
67298;Laerm;65443;51.436;5.978;2022-12-18T00:06:55;78.18;73.27;85.09;;
67298;Laerm;65443;51.436;5.978;2022-12-18T00:07:05;75.82;56.21;83.92;;
67298;Laerm;65443;51.436;5.978;2022-12-18T00:07:16;57.36;43.54;66.66;;
67298;Laerm;65443;51.436;5.978;2022-12-18T00:07:26;43.60;39.64;49.97;;
67298;Laerm;65443;51.436;5.978;2022-12-18T00:07:36;40.83;37.79;45.07;;
67298;Laerm;65443;51.436;5.978;2022-12-18T00:07:47;40.78;37.20;45.78;;
67298;Laerm;65443;51.436;5.978;2022-12-18T00:07:57;58.86;40.70;70.30;;
67298;Laerm;65443;51.436;5.978;2022-12-18T00:08:07;48.32;42.76;56.17;;
67298;Laerm;65443;51.436;5.978;2022-12-18T00:08:18;59.56;43.88;69.18;;
67298;Laerm;65443;51.436;5.978;2022-12-18T00:08:29;47.04;41.11;57.17;;
67298;Laerm;65443;51.436;5.978;2022-12-18T00:08:39;42.96;39.12;46.91;;
67298;Laerm;65443;51.436;5.978;2022-12-18T00:08:50;53.60;39.96;63.85;;
67298;Laerm;65443;51.436;5.978;2022-12-18T00:09:01;60.49;35.75;76.24;;
67298;Laerm;65443;51.436;5.978;2022-12-18T00:09:12;37.43;32.53;56.93;;
67298;Laerm;65443;51.436;5.978;2022-12-18T00:09:22;34.91;32.67;37.62;;
67298;Laerm;65443;51.436;5.978;2022-12-18T00:09:32;35.44;32.74;38.39;;
67298;Laerm;65443;51.436;5.978;2022-12-18T00:09:43;36.24;33.82;38.77;;
67298;Laerm;65443;51.436;5.978;2022-12-18T00:09:53;36.73;33.29;41.88;;
67298;Laerm;65443;51.436;5.978;2022-12-18T00:10:03;35.67;32.94;38.32;;
67298;Laerm;65443;51.436;5.978;2022-12-18T00:10:14;34.74;31.09;42.05;;
67298;Laerm;65443;51.436;5.978;2022-12-18T00:10:24;35.23;30.70;39.14;;
67298;Laerm;65443;51.436;5.978;2022-12-18T00:10:35;36.76;32.99;44.21;;
67298;Laerm;65443;51.436;5.978;2022-12-18T00:10:45;41.29;34.27;50.49;;
67298;Laerm;65443;51.436;5.978;2022-12-18T00:10:55;39.70;36.33;43.56;;
67298;Laerm;65443;51.436;5.978;2022-12-18T00:11:16;54.48;41.36;70.90;;
67298;Laerm;65443;51.436;5.978;2022-12-18T00:11:28;59.28;43.01;70.53;;
67298;Laerm;65443;51.436;5.978;2022-12-18T00:11:39;46.53;42.60;49.67;;
67298;Laerm;65443;51.436;5.978;2022-12-18T00:11:49;44.74;41.37;48.86;;
67298;Laerm;65443;51.436;5.978;2022-12-18T00:11:59;58.94;41.97;69.75;;
67298;Laerm;65443;51.436;5.978;2022-12-18T00:12:10;44.09;40.09;51.96;;
67298;Laerm;65443;51.436;5.978;2022-12-18T00:12:20;42.11;34.54;47.26;;
67298;Laerm;65443;51.436;5.978;2022-12-18T00:12:30;35.89;32.07;47.90;;
67298;Laerm;65443;51.436;5.978;2022-12-18T00:12:41;36.29;33.01;44.03;;
67298;Laerm;65443;51.436;5.978;2022-12-18T00:12:51;35.53;31.82;39.67;;
67298;Laerm;65443;51.436;5.978;2022-12-18T00:13:01;54.48;34.80;67.74;;
67298;Laerm;65443;51.436;5.978;2022-12-18T00:13:12;59.37;35.51;71.93;;
67298;Laerm;65443;51.436;5.978;2022-12-18T00:13:22;35.36;32.46;38.47;;
67298;Laerm;65443;51.436;5.978;2022-12-18T00:13:33;34.30;30.62;37.20;;
67298;Laerm;65443;51.436;5.978;2022-12-18T00:13:44;32.86;29.60;36.02;;
67298;Laerm;65443;51.436;5.978;2022-12-18T00:13:55;31.94;29.77;35.57;;
67298;Laerm;65443;51.436;5.978;2022-12-18T00:14:05;32.43;29.60;35.88;;
67298;Laerm;65443;51.436;5.978;2022-12-18T00:14:16;32.82;30.17;35.30;;
67298;Laerm;65443;51.436;5.978;2022-12-18T00:14:26;32.98;30.35;39.23;;
67298;Laerm;65443;51.436;5.978;2022-12-18T00:14:36;33.54;30.75;36.32;;
67298;Laerm;65443;51.436;5.978;2022-12-18T00:14:46;34.23;30.71;38.34;;
67298;Laerm;65443;51.436;5.978;2022-12-18T00:14:57;33.95;30.61;44.57;;
67298;Laerm;65443;51.436;5.978;2022-12-18T00:15:07;33.22;30.87;38.06;;
67298;Laerm;65443;51.436;5.978;2022-12-18T00:15:18;33.51;30.90;37.66;;
67298;Laerm;65443;51.436;5.978;2022-12-18T00:15:28;33.10;29.91;36.75;;
67298;Laerm;65443;51.436;5.978;2022-12-18T00:15:38;32.93;29.56;36.11;;
67298;Laerm;65443;51.436;5.978;2022-12-18T00:15:49;31.81;29.20;36.15;;
67298;Laerm;65443;51.436;5.978;2022-12-18T00:16:06;31.94;29.12;35.35;;
67298;Laerm;65443;51.436;5.978;2022-12-18T00:16:17;34.63;30.15;46.74;;
67298;Laerm;65443;51.436;5.978;2022-12-18T00:16:30;34.20;31.40;36.79;;
67298;Laerm;65443;51.436;5.978;2022-12-18T00:16:43;37.74;32.78;41.81;;
67298;Laerm;65443;51.436;5.978;2022-12-18T00:16:54;39.85;36.61;42.61;;
67298;Laerm;65443;51.436;5.978;2022-12-18T00:17:04;59.69;39.92;68.99;;
67298;Laerm;65443;51.436;5.978;2022-12-18T00:17:14;45.99;37.94;59.52;;
67298;Laerm;65443;51.436;5.978;2022-12-18T00:17:24;35.48;31.21;39.84;;
67298;Laerm;65443;51.436;5.978;2022-12-18T00:17:35;35.10;33.10;37.75;;
67298;Laerm;65443;51.436;5.978;2022-12-18T00:17:45;37.09;32.63;45.41;;
67298;Laerm;65443;51.436;5.978;2022-12-18T00:17:55;43.24;39.55;47.65;;
67298;Laerm;65443;51.436;5.978;2022-12-18T00:18:06;60.89;43.06;72.75;;
67298;Laerm;65443;51.436;5.978;2022-12-18T00:18:16;55.33;36.45;68.54;;
67298;Laerm;65443;51.436;5.978;2022-12-18T00:18:26;34.97;32.22;41.78;;
67298;Laerm;65443;51.436;5.978;2022-12-18T00:18:36;36.70;34.27;40.33;;
67298;Laerm;65443;51.436;5.978;2022-12-18T00:18:47;39.97;36.12;44.81;;
67298;Laerm;65443;51.436;5.978;2022-12-18T00:18:58;62.62;36.36;71.48;;
67298;Laerm;65443;51.436;5.978;2022-12-18T00:19:09;52.58;41.03;73.77;;
67298;Laerm;65443;51.436;5.978;2022-12-18T00:19:19;57.91;40.87;71.92;;
67298;Laerm;65443;51.436;5.978;2022-12-18T00:19:31;51.99;41.05;61.03;;
67298;Laerm;65443;51.436;5.978;2022-12-18T00:19:41;40.99;36.41;45.77;;
67298;Laerm;65443;51.436;5.978;2022-12-18T00:19:52;34.55;32.16;38.74;;
67298;Laerm;65443;51.436;5.978;2022-12-18T00:20:02;36.00;33.02;39.35;;
67298;Laerm;65443;51.436;5.978;2022-12-18T00:20:12;44.53;36.65;48.30;;
67298;Laerm;65443;51.436;5.978;2022-12-18T00:20:23;55.39;42.38;63.40;;
67298;Laerm;65443;51.436;5.978;2022-12-18T00:20:36;52.30;35.31;63.34;;
67298;Laerm;65443;51.436;5.978;2022-12-18T00:20:46;34.48;31.16;37.49;;
67298;Laerm;65443;51.436;5.978;2022-12-18T00:21:00;34.42;30.81;39.20;;
67298;Laerm;65443;51.436;5.978;2022-12-18T00:21:12;32.94;30.03;38.19;;
67298;Laerm;65443;51.436;5.978;2022-12-18T00:21:22;34.15;30.62;36.63;;
67298;Laerm;65443;51.436;5.978;2022-12-18T00:21:33;31.96;29.28;35.71;;
67298;Laerm;65443;51.436;5.978;2022-12-18T00:21:44;32.46;30.08;34.98;;
67298;Laerm;65443;51.436;5.978;2022-12-18T00:21:54;32.57;30.30;35.15;;
67298;Laerm;65443;51.436;5.978;2022-12-18T00:22:04;37.97;32.41;54.06;;
67298;Laerm;65443;51.436;5.978;2022-12-18T00:22:16;41.10;35.45;45.12;;
67298;Laerm;65443;51.436;5.978;2022-12-18T00:22:26;40.58;30.91;52.87;;
67298;Laerm;65443;51.436;5.978;2022-12-18T00:22:36;40.47;30.08;56.90;;
67298;Laerm;65443;51.436;5.978;2022-12-18T00:22:46;36.10;31.77;44.54;;
67298;Laerm;65443;51.436;5.978;2022-12-18T00:22:57;53.30;37.52;59.82;;
67298;Laerm;65443;51.436;5.978;2022-12-18T00:23:07;54.08;36.48;59.06;;
67298;Laerm;65443;51.436;5.978;2022-12-18T00:23:17;48.25;34.78;59.61;;
67298;Laerm;65443;51.436;5.978;2022-12-18T00:23:28;51.27;38.37;59.73;;
67298;Laerm;65443;51.436;5.978;2022-12-18T00:23:39;62.36;39.09;82.80;;
67298;Laerm;65443;51.436;5.978;2022-12-18T00:23:50;42.63;34.93;47.16;;
67298;Laerm;65443;51.436;5.978;2022-12-18T00:24:01;33.57;29.81;44.72;;
67298;Laerm;65443;51.436;5.978;2022-12-18T00:24:11;36.69;29.91;47.73;;
67298;Laerm;65443;51.436;5.978;2022-12-18T00:24:22;37.00;32.89;45.60;;
67298;Laerm;65443;51.436;5.978;2022-12-18T00:24:32;35.91;29.34;43.97;;
67298;Laerm;65443;51.436;5.978;2022-12-18T00:24:42;33.39;29.57;52.12;;
67298;Laerm;65443;51.436;5.978;2022-12-18T00:24:52;30.34;28.88;31.72;;
67298;Laerm;65443;51.436;5.978;2022-12-18T00:25:03;30.63;29.13;33.01;;
67298;Laerm;65443;51.436;5.978;2022-12-18T00:25:13;30.76;29.40;32.41;;
67298;Laerm;65443;51.436;5.978;2022-12-18T00:25:23;30.22;29.03;31.51;;
67298;Laerm;65443;51.436;5.978;2022-12-18T00:25:34;32.13;29.33;35.78;;
67298;Laerm;65443;51.436;5.978;2022-12-18T00:25:45;35.15;33.37;38.21;;
67298;Laerm;65443;51.436;5.978;2022-12-18T00:25:59;47.35;29.98;57.05;;
67298;Laerm;65443;51.436;5.978;2022-12-18T00:26:10;53.37;36.18;60.83;;
67298;Laerm;65443;51.436;5.978;2022-12-18T00:26:22;34.83;30.34;38.57;;
67298;Laerm;65443;51.436;5.978;2022-12-18T00:26:33;33.99;29.39;54.51;;
67298;Laerm;65443;51.436;5.978;2022-12-18T00:26:43;31.26;28.80;43.80;;
67298;Laerm;65443;51.436;5.978;2022-12-18T00:26:54;30.71;29.06;32.39;;
67298;Laerm;65443;51.436;5.978;2022-12-18T00:27:04;31.12;29.22;33.61;;
67298;Laerm;65443;51.436;5.978;2022-12-18T00:27:14;30.36;28.49;32.01;;
67298;Laerm;65443;51.436;5.978;2022-12-18T00:27:25;30.53;28.77;31.83;;
67298;Laerm;65443;51.436;5.978;2022-12-18T00:27:35;30.81;28.37;33.53;;
67298;Laerm;65443;51.436;5.978;2022-12-18T00:27:45;30.44;29.16;31.97;;
67298;Laerm;65443;51.436;5.978;2022-12-18T00:27:56;30.22;28.85;32.22;;
67298;Laerm;65443;51.436;5.978;2022-12-18T00:28:06;30.85;29.13;33.06;;
67298;Laerm;65443;51.436;5.978;2022-12-18T00:28:16;30.60;29.18;33.60;;
67298;Laerm;65443;51.436;5.978;2022-12-18T00:28:27;30.77;29.32;32.66;;
67298;Laerm;65443;51.436;5.978;2022-12-18T00:28:37;30.96;29.42;32.93;;
67298;Laerm;65443;51.436;5.978;2022-12-18T00:28:47;31.41;29.30;34.05;;
67298;Laerm;65443;51.436;5.978;2022-12-18T00:29:01;31.48;29.43;34.72;;
67298;Laerm;65443;51.436;5.978;2022-12-18T00:29:13;31.11;29.17;33.89;;
67298;Laerm;65443;51.436;5.978;2022-12-18T00:29:26;30.96;29.34;34.52;;
67298;Laerm;65443;51.436;5.978;2022-12-18T00:29:37;30.38;28.87;34.01;;
67298;Laerm;65443;51.436;5.978;2022-12-18T00:29:47;30.55;28.61;34.36;;
67298;Laerm;65443;51.436;5.978;2022-12-18T00:29:58;31.34;29.40;34.18;;
67298;Laerm;65443;51.436;5.978;2022-12-18T00:30:08;31.09;29.29;32.88;;
67298;Laerm;65443;51.436;5.978;2022-12-18T00:30:19;32.44;29.28;47.32;;
67298;Laerm;65443;51.436;5.978;2022-12-18T00:30:29;31.23;28.92;34.61;;
67298;Laerm;65443;51.436;5.978;2022-12-18T00:30:40;30.89;29.54;32.66;;
67298;Laerm;65443;51.436;5.978;2022-12-18T00:30:50;30.43;29.17;31.69;;
67298;Laerm;65443;51.436;5.978;2022-12-18T00:31:02;30.27;29.06;32.44;;
67298;Laerm;65443;51.436;5.978;2022-12-18T00:31:14;56.38;29.75;70.30;;
67298;Laerm;65443;51.436;5.978;2022-12-18T00:31:25;31.32;28.98;34.20;;
67298;Laerm;65443;51.436;5.978;2022-12-18T00:31:36;44.52;33.65;48.04;;
67298;Laerm;65443;51.436;5.978;2022-12-18T00:31:47;62.49;40.73;73.02;;
67298;Laerm;65443;51.436;5.978;2022-12-18T00:31:57;45.50;38.40;49.72;;
67298;Laerm;65443;51.436;5.978;2022-12-18T00:32:07;35.73;30.30;42.18;;
67298;Laerm;65443;51.436;5.978;2022-12-18T00:32:17;30.50;28.71;32.86;;
67298;Laerm;65443;51.436;5.978;2022-12-18T00:32:28;30.14;28.70;31.29;;
67298;Laerm;65443;51.436;5.978;2022-12-18T00:32:38;30.20;28.55;36.16;;
67298;Laerm;65443;51.436;5.978;2022-12-18T00:32:48;30.83;28.83;33.61;;
67298;Laerm;65443;51.436;5.978;2022-12-18T00:32:59;30.17;28.88;32.05;;
67298;Laerm;65443;51.436;5.978;2022-12-18T00:33:09;30.19;28.69;31.86;;
67298;Laerm;65443;51.436;5.978;2022-12-18T00:33:19;30.66;29.11;33.44;;
67298;Laerm;65443;51.436;5.978;2022-12-18T00:33:30;32.83;30.18;37.17;;
67298;Laerm;65443;51.436;5.978;2022-12-18T00:33:40;33.21;28.69;45.40;;
67298;Laerm;65443;51.436;5.978;2022-12-18T00:33:50;41.43;30.00;57.36;;
67298;Laerm;65443;51.436;5.978;2022-12-18T00:34:01;42.72;32.61;60.12;;
67298;Laerm;65443;51.436;5.978;2022-12-18T00:34:12;34.90;29.35;45.20;;
67298;Laerm;65443;51.436;5.978;2022-12-18T00:34:23;35.51;30.63;52.46;;
67298;Laerm;65443;51.436;5.978;2022-12-18T00:34:33;33.59;30.23;38.94;;
67298;Laerm;65443;51.436;5.978;2022-12-18T00:34:43;60.25;37.26;70.15;;
67298;Laerm;65443;51.436;5.978;2022-12-18T00:34:53;43.17;38.83;50.12;;
67298;Laerm;65443;51.436;5.978;2022-12-18T00:35:04;39.86;31.58;47.69;;
67298;Laerm;65443;51.436;5.978;2022-12-18T00:35:15;31.27;29.17;35.94;;
67298;Laerm;65443;51.436;5.978;2022-12-18T00:35:25;36.43;28.41;57.97;;
67298;Laerm;65443;51.436;5.978;2022-12-18T00:35:35;33.13;29.25;37.79;;
67298;Laerm;65443;51.436;5.978;2022-12-18T00:35:45;34.54;32.54;37.89;;
67298;Laerm;65443;51.436;5.978;2022-12-18T00:36:06;31.04;28.74;36.16;;
67298;Laerm;65443;51.436;5.978;2022-12-18T00:36:17;30.07;28.52;32.18;;
67298;Laerm;65443;51.436;5.978;2022-12-18T00:36:29;37.93;28.21;60.51;;
67298;Laerm;65443;51.436;5.978;2022-12-18T00:36:40;32.02;28.43;40.06;;
67298;Laerm;65443;51.436;5.978;2022-12-18T00:36:51;30.56;28.45;37.43;;
67298;Laerm;65443;51.436;5.978;2022-12-18T00:37:01;31.05;28.80;35.93;;
67298;Laerm;65443;51.436;5.978;2022-12-18T00:37:11;30.62;28.68;32.85;;
67298;Laerm;65443;51.436;5.978;2022-12-18T00:37:21;30.12;28.87;31.63;;
67298;Laerm;65443;51.436;5.978;2022-12-18T00:37:33;30.01;28.71;32.05;;
67298;Laerm;65443;51.436;5.978;2022-12-18T00:37:43;30.05;28.58;34.37;;
67298;Laerm;65443;51.436;5.978;2022-12-18T00:37:53;30.12;28.59;31.88;;
67298;Laerm;65443;51.436;5.978;2022-12-18T00:38:04;30.01;28.23;32.13;;
67298;Laerm;65443;51.436;5.978;2022-12-18T00:38:16;29.74;28.54;33.67;;
67298;Laerm;65443;51.436;5.978;2022-12-18T00:38:26;29.67;28.25;31.26;;
67298;Laerm;65443;51.436;5.978;2022-12-18T00:38:37;29.85;28.28;32.50;;
67298;Laerm;65443;51.436;5.978;2022-12-18T00:38:47;29.67;28.49;32.95;;
67298;Laerm;65443;51.436;5.978;2022-12-18T00:38:58;29.70;28.21;31.22;;
67298;Laerm;65443;51.436;5.978;2022-12-18T00:39:09;29.77;28.56;31.70;;
67298;Laerm;65443;51.436;5.978;2022-12-18T00:39:20;29.73;28.39;31.49;;
67298;Laerm;65443;51.436;5.978;2022-12-18T00:39:30;29.62;27.90;33.05;;
67298;Laerm;65443;51.436;5.978;2022-12-18T00:39:41;29.86;28.35;31.57;;
67298;Laerm;65443;51.436;5.978;2022-12-18T00:39:51;30.30;28.66;32.31;;
67298;Laerm;65443;51.436;5.978;2022-12-18T00:40:02;33.87;28.98;52.25;;
67298;Laerm;65443;51.436;5.978;2022-12-18T00:40:13;30.01;28.52;31.59;;
67298;Laerm;65443;51.436;5.978;2022-12-18T00:40:23;29.73;28.53;31.04;;
67298;Laerm;65443;51.436;5.978;2022-12-18T00:40:33;30.79;28.61;44.75;;
67298;Laerm;65443;51.436;5.978;2022-12-18T00:40:43;29.99;28.60;32.88;;
67298;Laerm;65443;51.436;5.978;2022-12-18T00:40:54;30.06;28.49;31.92;;
67298;Laerm;65443;51.436;5.978;2022-12-18T00:41:05;30.33;28.62;33.05;;
67298;Laerm;65443;51.436;5.978;2022-12-18T00:41:16;29.67;28.43;31.54;;
67298;Laerm;65443;51.436;5.978;2022-12-18T00:41:47;29.75;28.36;31.46;;
67298;Laerm;65443;51.436;5.978;2022-12-18T00:42:16;30.15;28.70;32.92;;
67298;Laerm;65443;51.436;5.978;2022-12-18T00:42:45;52.91;29.66;70.14;;
67298;Laerm;65443;51.436;5.978;2022-12-18T00:43:07;56.82;38.37;73.15;;
67298;Laerm;65443;51.436;5.978;2022-12-18T00:43:19;39.91;34.08;47.04;;
67298;Laerm;65443;51.436;5.978;2022-12-18T00:43:29;33.80;30.77;37.01;;
67298;Laerm;65443;51.436;5.978;2022-12-18T00:43:40;35.91;30.12;42.70;;
67298;Laerm;65443;51.436;5.978;2022-12-18T00:43:50;39.44;31.06;46.30;;
67298;Laerm;65443;51.436;5.978;2022-12-18T00:44:01;36.97;32.66;42.26;;
67298;Laerm;65443;51.436;5.978;2022-12-18T00:44:12;35.75;31.97;41.57;;
67298;Laerm;65443;51.436;5.978;2022-12-18T00:44:23;33.18;30.31;39.04;;
67298;Laerm;65443;51.436;5.978;2022-12-18T00:44:33;31.36;28.74;34.13;;
67298;Laerm;65443;51.436;5.978;2022-12-18T00:44:43;30.00;28.71;31.46;;
67298;Laerm;65443;51.436;5.978;2022-12-18T00:44:53;31.25;29.46;33.96;;
67298;Laerm;65443;51.436;5.978;2022-12-18T00:45:04;30.72;29.62;32.22;;
67298;Laerm;65443;51.436;5.978;2022-12-18T00:45:14;31.62;29.39;38.14;;
67298;Laerm;65443;51.436;5.978;2022-12-18T00:45:28;34.18;29.67;39.96;;
67298;Laerm;65443;51.436;5.978;2022-12-18T00:45:39;31.45;28.79;37.24;;
67298;Laerm;65443;51.436;5.978;2022-12-18T00:45:49;30.96;28.27;34.33;;
67298;Laerm;65443;51.436;5.978;2022-12-18T00:46:00;31.16;29.24;34.64;;
67298;Laerm;65443;51.436;5.978;2022-12-18T00:46:10;30.81;28.38;42.46;;
67298;Laerm;65443;51.436;5.978;2022-12-18T00:46:20;30.33;28.50;33.77;;
67298;Laerm;65443;51.436;5.978;2022-12-18T00:46:31;30.07;28.71;31.56;;
67298;Laerm;65443;51.436;5.978;2022-12-18T00:46:42;29.96;28.20;31.57;;
67298;Laerm;65443;51.436;5.978;2022-12-18T00:46:53;30.30;28.72;32.33;;
67298;Laerm;65443;51.436;5.978;2022-12-18T00:47:03;31.92;29.51;36.67;;
67298;Laerm;65443;51.436;5.978;2022-12-18T00:47:13;62.20;34.98;67.29;;
67298;Laerm;65443;51.436;5.978;2022-12-18T00:47:23;63.77;54.84;68.97;;
67298;Laerm;65443;51.436;5.978;2022-12-18T00:47:34;61.03;54.58;66.29;;
67298;Laerm;65443;51.436;5.978;2022-12-18T00:47:44;60.83;53.42;66.04;;
67298;Laerm;65443;51.436;5.978;2022-12-18T00:47:55;62.66;55.14;71.99;;
67298;Laerm;65443;51.436;5.978;2022-12-18T00:48:05;80.53;69.05;89.33;;
67298;Laerm;65443;51.436;5.978;2022-12-18T00:48:16;75.23;72.93;77.86;;
67298;Laerm;65443;51.436;5.978;2022-12-18T00:48:26;74.64;61.42;77.84;;
67298;Laerm;65443;51.436;5.978;2022-12-18T00:48:36;59.79;43.96;66.14;;
67298;Laerm;65443;51.436;5.978;2022-12-18T00:48:46;43.42;39.26;47.93;;
67298;Laerm;65443;51.436;5.978;2022-12-18T00:48:57;40.59;36.33;46.88;;
67298;Laerm;65443;51.436;5.978;2022-12-18T00:49:07;39.54;35.83;42.92;;
67298;Laerm;65443;51.436;5.978;2022-12-18T00:49:18;38.14;34.35;42.19;;
67298;Laerm;65443;51.436;5.978;2022-12-18T00:49:29;35.70;32.70;38.14;;
67298;Laerm;65443;51.436;5.978;2022-12-18T00:49:39;33.93;30.75;39.81;;
67298;Laerm;65443;51.436;5.978;2022-12-18T00:49:49;32.92;30.67;35.12;;
67298;Laerm;65443;51.436;5.978;2022-12-18T00:50:00;32.84;30.56;34.81;;
67298;Laerm;65443;51.436;5.978;2022-12-18T00:50:10;32.78;30.27;36.07;;
67298;Laerm;65443;51.436;5.978;2022-12-18T00:50:21;33.63;31.07;36.87;;
67298;Laerm;65443;51.436;5.978;2022-12-18T00:50:31;33.84;31.54;36.31;;
67298;Laerm;65443;51.436;5.978;2022-12-18T00:50:42;34.99;33.10;37.14;;
67298;Laerm;65443;51.436;5.978;2022-12-18T00:50:52;38.78;33.85;44.42;;
67298;Laerm;65443;51.436;5.978;2022-12-18T00:51:02;44.77;34.75;53.26;;
67298;Laerm;65443;51.436;5.978;2022-12-18T00:51:12;55.99;38.41;64.89;;
67298;Laerm;65443;51.436;5.978;2022-12-18T00:51:23;35.61;32.36;38.88;;
67298;Laerm;65443;51.436;5.978;2022-12-18T00:51:33;38.82;33.97;45.67;;
67298;Laerm;65443;51.436;5.978;2022-12-18T00:51:44;58.94;43.96;69.15;;
67298;Laerm;65443;51.436;5.978;2022-12-18T00:51:54;44.77;42.45;48.14;;
67298;Laerm;65443;51.436;5.978;2022-12-18T00:52:05;40.62;30.16;49.05;;
67298;Laerm;65443;51.436;5.978;2022-12-18T00:52:15;30.38;28.89;32.43;;
67298;Laerm;65443;51.436;5.978;2022-12-18T00:52:25;29.96;28.27;31.54;;
67298;Laerm;65443;51.436;5.978;2022-12-18T00:52:35;30.86;29.11;32.94;;
67298;Laerm;65443;51.436;5.978;2022-12-18T00:52:46;30.42;29.18;31.70;;
67298;Laerm;65443;51.436;5.978;2022-12-18T00:52:56;29.97;28.74;31.12;;
67298;Laerm;65443;51.436;5.978;2022-12-18T00:53:06;30.65;29.17;32.24;;
67298;Laerm;65443;51.436;5.978;2022-12-18T00:53:17;30.83;29.35;34.45;;
67298;Laerm;65443;51.436;5.978;2022-12-18T00:53:27;30.72;29.16;32.82;;
67298;Laerm;65443;51.436;5.978;2022-12-18T00:53:38;30.43;28.99;32.17;;
67298;Laerm;65443;51.436;5.978;2022-12-18T00:53:48;30.37;28.94;34.02;;
67298;Laerm;65443;51.436;5.978;2022-12-18T00:53:59;30.25;28.50;34.73;;
67298;Laerm;65443;51.436;5.978;2022-12-18T00:54:10;30.11;28.81;31.66;;
67298;Laerm;65443;51.436;5.978;2022-12-18T00:54:20;29.98;28.54;31.73;;
67298;Laerm;65443;51.436;5.978;2022-12-18T00:54:30;30.09;28.52;33.43;;
67298;Laerm;65443;51.436;5.978;2022-12-18T00:54:41;29.91;28.46;31.64;;
67298;Laerm;65443;51.436;5.978;2022-12-18T00:54:51;29.77;28.44;33.04;;
67298;Laerm;65443;51.436;5.978;2022-12-18T00:55:01;29.71;28.24;31.06;;
67298;Laerm;65443;51.436;5.978;2022-12-18T00:55:11;29.81;28.62;34.40;;
67298;Laerm;65443;51.436;5.978;2022-12-18T00:55:22;29.67;28.50;32.32;;
67298;Laerm;65443;51.436;5.978;2022-12-18T00:55:32;29.54;28.12;30.87;;
67298;Laerm;65443;51.436;5.978;2022-12-18T00:55:43;31.01;28.40;45.06;;
67298;Laerm;65443;51.436;5.978;2022-12-18T00:55:53;34.44;29.72;40.21;;
67298;Laerm;65443;51.436;5.978;2022-12-18T00:56:03;48.36;36.56;54.73;;
67298;Laerm;65443;51.436;5.978;2022-12-18T00:56:14;49.99;41.26;53.72;;
67298;Laerm;65443;51.436;5.978;2022-12-18T00:56:24;37.85;34.00;43.88;;
67298;Laerm;65443;51.436;5.978;2022-12-18T00:56:35;35.78;31.89;41.07;;
67298;Laerm;65443;51.436;5.978;2022-12-18T00:56:45;30.84;29.21;34.48;;
67298;Laerm;65443;51.436;5.978;2022-12-18T00:56:55;30.10;28.63;32.88;;
67298;Laerm;65443;51.436;5.978;2022-12-18T00:57:06;30.28;28.74;37.32;;
67298;Laerm;65443;51.436;5.978;2022-12-18T00:57:16;30.04;28.59;31.73;;
67298;Laerm;65443;51.436;5.978;2022-12-18T00:57:26;30.89;28.93;32.86;;
67298;Laerm;65443;51.436;5.978;2022-12-18T00:57:37;30.59;28.78;32.94;;
67298;Laerm;65443;51.436;5.978;2022-12-18T00:57:47;30.70;28.78;33.83;;
67298;Laerm;65443;51.436;5.978;2022-12-18T00:57:57;31.26;29.25;33.78;;
67298;Laerm;65443;51.436;5.978;2022-12-18T00:58:08;31.25;29.05;41.31;;
67298;Laerm;65443;51.436;5.978;2022-12-18T00:58:18;30.49;28.62;33.73;;
67298;Laerm;65443;51.436;5.978;2022-12-18T00:58:29;30.44;28.38;33.14;;
67298;Laerm;65443;51.436;5.978;2022-12-18T00:58:39;34.15;29.05;54.78;;
67298;Laerm;65443;51.436;5.978;2022-12-18T00:58:49;31.71;28.77;36.34;;
67298;Laerm;65443;51.436;5.978;2022-12-18T00:59:00;46.88;35.24;57.69;;
67298;Laerm;65443;51.436;5.978;2022-12-18T00:59:10;55.33;46.24;59.81;;
67298;Laerm;65443;51.436;5.978;2022-12-18T00:59:20;48.43;43.37;56.11;;
67298;Laerm;65443;51.436;5.978;2022-12-18T00:59:30;40.22;31.76;46.56;;
67298;Laerm;65443;51.436;5.978;2022-12-18T00:59:41;34.68;31.99;39.78;;
67298;Laerm;65443;51.436;5.978;2022-12-18T00:59:51;48.81;37.74;56.53;;
67298;Laerm;65443;51.436;5.978;2022-12-18T01:00:03;52.22;42.57;56.03;;
67298;Laerm;65443;51.436;5.978;2022-12-18T01:00:14;60.02;36.26;71.40;;
67298;Laerm;65443;51.436;5.978;2022-12-18T01:00:24;34.25;28.15;41.78;;
67298;Laerm;65443;51.436;5.978;2022-12-18T01:00:35;37.06;28.22;56.71;;
67298;Laerm;65443;51.436;5.978;2022-12-18T01:00:45;31.81;28.81;41.87;;
67298;Laerm;65443;51.436;5.978;2022-12-18T01:00:55;30.67;28.84;34.74;;
67298;Laerm;65443;51.436;5.978;2022-12-18T01:01:06;30.26;28.55;32.79;;
67298;Laerm;65443;51.436;5.978;2022-12-18T01:01:16;30.36;29.02;34.21;;